Time;durP1;ratioP1;P1;durP2;ratioP2;P2;SDS_P1;SDS_P2;PMS_P1;PMS_P2;Temp;Humidity;BMP_temperature;BMP_pressure;BME280_temperature;BME280_humidity;BME280_pressure;Samples;Min_cycle;Max_cycle;Signal;HPM_P1;HPM_P2
2020/12/14 00:02:11;;;;;;;4.07;2.75;;;22.70;49.50;;;;;;5115541;27;20098;-68
2020/12/14 00:04:37;;;;;;;4.55;3.17;;;22.70;49.60;;;;;;5111669;27;20126;-68
2020/12/14 00:07:03;;;;;;;3.95;2.63;;;22.70;49.60;;;;;;5120311;27;20031;-68
2020/12/14 00:09:31;;;;;;;4.75;2.75;;;22.70;49.60;;;;;;5110173;27;20045;-68
2020/12/14 00:11:57;;;;;;;3.80;2.67;;;22.60;49.60;;;;;;5121340;27;20458;-68
2020/12/14 00:14:22;;;;;;;4.85;2.88;;;22.60;49.60;;;;;;5125756;27;20518;-68
2020/12/14 00:16:48;;;;;;;4.55;3.00;;;22.60;49.60;;;;;;5115150;27;20036;-68
2020/12/14 00:19:14;;;;;;;3.97;2.58;;;22.60;49.60;;;;;;5108201;28;20074;-68
2020/12/14 00:21:39;;;;;;;4.68;2.63;;;22.60;49.60;;;;;;5120944;28;20461;-68
2020/12/14 00:24:05;;;;;;;6.28;2.97;;;22.50;49.70;;;;;;5123417;28;20075;-68
2020/12/14 00:26:30;;;;;;;4.65;2.90;;;22.50;49.70;;;;;;5122914;27;20030;-68
2020/12/14 00:28:56;;;;;;;4.50;2.72;;;22.50;49.70;;;;;;5136956;27;20027;-68
2020/12/14 00:31:22;;;;;;;4.55;2.35;;;22.40;49.70;;;;;;5125319;27;20046;-68
2020/12/14 00:33:47;;;;;;;5.47;2.80;;;22.50;49.80;;;;;;5122651;28;20508;-68
2020/12/14 00:36:13;;;;;;;3.90;2.30;;;22.40;49.80;;;;;;5099523;28;20072;-68
2020/12/14 00:38:40;;;;;;;4.13;2.72;;;22.40;49.80;;;;;;5099467;28;20135;-68
2020/12/14 00:41:06;;;;;;;4.40;2.67;;;22.40;49.80;;;;;;5107688;27;20122;-68
2020/12/14 00:43:32;;;;;;;4.18;2.47;;;22.40;49.80;;;;;;5120072;27;20053;-68
2020/12/14 00:45:58;;;;;;;3.90;2.38;;;22.30;49.80;;;;;;5114206;27;20060;-68
2020/12/14 00:48:23;;;;;;;4.50;2.40;;;22.30;49.80;;;;;;5123039;27;20556;-68
2020/12/14 00:50:49;;;;;;;3.25;2.08;;;22.30;49.80;;;;;;5145620;27;20110;-68
2020/12/14 00:53:15;;;;;;;4.50;2.33;;;22.30;49.90;;;;;;5109895;27;20174;-68
2020/12/14 00:55:40;;;;;;;4.35;2.50;;;22.20;49.90;;;;;;5115743;28;20370;-68
2020/12/14 00:58:06;;;;;;;4.07;2.22;;;22.30;49.90;;;;;;5107080;27;20382;-68
2020/12/14 01:00:32;;;;;;;3.72;2.15;;;22.30;49.90;;;;;;5123436;27;20425;-68
2020/12/14 01:02:58;;;;;;;4.00;2.00;;;22.20;49.90;;;;;;5097140;27;20378;-68
2020/12/14 01:05:24;;;;;;;3.45;2.17;;;22.20;49.90;;;;;;5100119;27;20027;-68
2020/12/14 01:07:49;;;;;;;3.60;2.08;;;22.20;49.90;;;;;;5136869;27;20035;-68
2020/12/14 01:10:15;;;;;;;3.95;2.13;;;22.20;50.00;;;;;;5126183;27;20050;-68
2020/12/14 01:12:41;;;;;;;4.38;2.38;;;22.10;50.00;;;;;;5097155;28;20032;-68
2020/12/14 01:15:07;;;;;;;5.03;2.38;;;22.10;50.00;;;;;;5111387;27;20107;-68
2020/12/14 01:17:33;;;;;;;3.92;2.10;;;22.10;50.00;;;;;;5118414;27;20027;-68
2020/12/14 01:19:59;;;;;;;3.78;2.08;;;22.10;50.60;;;;;;5125602;27;20249;-68
2020/12/14 01:22:24;;;;;;;3.35;1.92;;;22.10;50.00;;;;;;5113318;27;20105;-68
2020/12/14 01:24:50;;;;;;;3.67;2.13;;;22.10;50.10;;;;;;5126784;27;20088;-67
2020/12/14 01:27:16;;;;;;;3.15;1.95;;;22.00;50.10;;;;;;5124163;27;20019;-68
2020/12/14 01:29:41;;;;;;;4.88;2.05;;;22.00;50.10;;;;;;5119199;27;20060;-68
2020/12/14 01:32:07;;;;;;;3.85;2.30;;;22.00;50.10;;;;;;5121284;27;20055;-67
2020/12/14 01:34:33;;;;;;;3.03;1.90;;;22.00;50.10;;;;;;5123972;27;20441;-68
2020/12/14 01:36:59;;;;;;;2.83;1.80;;;22.00;50.20;;;;;;5106977;27;20039;-68
2020/12/14 01:39:24;;;;;;;3.38;2.00;;;21.90;50.10;;;;;;5120474;27;20036;-68
2020/12/14 01:41:51;;;;;;;2.88;1.80;;;21.90;50.10;;;;;;5129100;27;20447;-68
2020/12/14 01:44:16;;;;;;;3.08;1.92;;;21.90;50.10;;;;;;5127545;27;20049;-68
2020/12/14 01:46:44;;;;;;;2.92;1.92;;;21.90;50.20;;;;;;5130168;27;20023;-68
2020/12/14 01:49:11;;;;;;;2.85;1.73;;;21.90;50.20;;;;;;5127825;27;20032;-68
2020/12/14 01:51:37;;;;;;;3.47;1.95;;;21.90;50.20;;;;;;5127526;27;20031;-68
2020/12/14 01:54:15;;;;;;;3.28;1.90;;;21.90;50.20;;;;;;5118458;27;20031;-68
2020/12/14 01:56:41;;;;;;;3.47;2.05;;;21.90;50.20;;;;;;5106654;28;20019;-68
2020/12/14 01:59:07;;;;;;;2.97;1.80;;;21.80;50.20;;;;;;5119963;27;20024;-68
2020/12/14 02:01:32;;;;;;;2.60;1.50;;;21.80;50.20;;;;;;5099192;27;20143;-68
2020/12/14 02:03:58;;;;;;;2.70;1.58;;;21.80;50.20;;;;;;5116019;27;20228;-67
2020/12/14 02:06:24;;;;;;;2.90;1.80;;;21.80;50.80;;;;;;5125104;27;20079;-68
2020/12/14 02:08:49;;;;;;;3.05;1.80;;;21.80;50.20;;;;;;5127128;27;20538;-68
2020/12/14 02:11:15;;;;;;;3.30;1.80;;;21.80;50.20;;;;;;5107438;27;20019;-67
2020/12/14 02:13:41;;;;;;;2.92;1.60;;;21.80;50.30;;;;;;5111567;27;20104;-68
2020/12/14 02:16:07;;;;;;;2.88;1.60;;;21.80;50.30;;;;;;5117930;27;20024;-68
2020/12/14 02:18:32;;;;;;;2.60;1.58;;;21.70;50.30;;;;;;5104903;28;20038;-67
2020/12/14 02:20:58;;;;;;;2.95;1.75;;;21.70;50.30;;;;;;5108508;28;20462;-68
2020/12/14 02:23:23;;;;;;;2.40;1.58;;;21.70;50.30;;;;;;5135147;27;20019;-67
2020/12/14 02:25:49;;;;;;;3.08;1.70;;;21.70;50.30;;;;;;5136181;27;20035;-68
2020/12/14 02:28:14;;;;;;;3.47;1.70;;;21.70;50.30;;;;;;5126856;27;20522;-68
2020/12/14 02:30:40;;;;;;;2.90;1.88;;;21.60;50.30;;;;;;5120188;27;20034;-68
2020/12/14 02:33:06;;;;;;;2.67;1.65;;;21.60;50.30;;;;;;5115096;27;20072;-68
2020/12/14 02:35:31;;;;;;;3.03;1.70;;;21.60;50.30;;;;;;5106359;27;20489;-68
2020/12/14 02:37:57;;;;;;;2.70;1.65;;;21.60;50.30;;;;;;5125127;27;20031;-68
2020/12/14 02:40:22;;;;;;;2.53;1.50;;;21.60;50.30;;;;;;5126179;27;20418;-68
2020/12/14 02:42:48;;;;;;;2.42;1.48;;;21.60;50.30;;;;;;5126856;27;20465;-68
2020/12/14 02:45:14;;;;;;;2.45;1.45;;;21.60;50.30;;;;;;5113733;27;20050;-68
2020/12/14 02:47:39;;;;;;;2.80;1.70;;;21.60;50.40;;;;;;5110861;27;20096;-68
2020/12/14 02:50:05;;;;;;;2.22;1.50;;;21.60;50.30;;;;;;5091810;28;20042;-68
2020/12/14 02:52:31;;;;;;;2.25;1.50;;;21.60;50.40;;;;;;5119468;27;20446;-68
2020/12/14 02:54:56;;;;;;;2.17;1.50;;;21.60;50.40;;;;;;5133566;27;20038;-68
2020/12/14 02:57:22;;;;;;;2.00;1.40;;;21.50;50.40;;;;;;5126412;27;20667;-68
2020/12/14 02:59:47;;;;;;;3.80;2.05;;;21.50;50.40;;;;;;5115352;27;20115;-68
2020/12/14 03:02:13;;;;;;;2.75;1.70;;;21.50;50.40;;;;;;5117830;27;20027;-68
2020/12/14 03:04:38;;;;;;;2.58;1.50;;;21.50;50.40;;;;;;5098817;27;20434;-67
2020/12/14 03:07:04;;;;;;;2.50;1.48;;;21.50;50.90;;;;;;5103040;27;20034;-68
2020/12/14 03:09:30;;;;;;;2.83;1.60;;;21.50;50.40;;;;;;5115288;27;20148;-68
2020/12/14 03:12:00;;;;;;;2.33;1.45;;;21.50;50.40;;;;;;5137295;27;20130;-68
2020/12/14 03:14:26;;;;;;;2.38;1.58;;;21.50;50.40;;;;;;5118233;27;20037;-68
2020/12/14 03:16:53;;;;;;;2.35;1.55;;;21.50;50.40;;;;;;5103574;27;20027;-67
2020/12/14 03:19:19;;;;;;;2.17;1.40;;;21.50;50.90;;;;;;5108001;27;20055;-68
2020/12/14 03:21:45;;;;;;;2.60;1.60;;;21.50;50.40;;;;;;5126840;27;20115;-68
2020/12/14 03:24:12;;;;;;;2.60;1.67;;;21.50;50.40;;;;;;5127252;27;20166;-68
2020/12/14 03:26:37;;;;;;;3.20;1.80;;;21.40;50.40;;;;;;5118547;27;20095;-68
2020/12/14 03:29:04;;;;;;;2.30;1.50;;;21.40;50.40;;;;;;5114979;27;20210;-68
2020/12/14 03:31:30;;;;;;;2.50;1.60;;;21.40;50.40;;;;;;5114115;27;20523;-68
2020/12/14 03:33:56;;;;;;;2.33;1.40;;;21.40;50.40;;;;;;5121350;27;20035;-68
2020/12/14 03:36:23;;;;;;;2.33;1.33;;;21.40;50.40;;;;;;5121775;27;20034;-68
2020/12/14 03:38:50;;;;;;;1.98;1.40;;;21.40;50.40;;;;;;5123025;27;20371;-68
2020/12/14 03:41:16;;;;;;;2.85;1.58;;;21.40;50.40;;;;;;5127253;27;20366;-68
2020/12/14 03:43:41;;;;;;;2.22;1.42;;;21.40;50.40;;;;;;5123223;27;20027;-68
2020/12/14 03:46:15;;;;;;;2.72;1.33;;;21.30;50.40;;;;;;5123264;27;20020;-68
2020/12/14 03:48:41;;;;;;;2.15;1.35;;;21.40;50.40;;;;;;5118396;27;20061;-68
2020/12/14 03:51:09;;;;;;;2.60;1.40;;;21.30;50.40;;;;;;5123841;27;20032;-68
2020/12/14 03:53:34;;;;;;;2.30;1.30;;;21.30;50.40;;;;;;5119088;27;20035;-68
2020/12/14 03:56:00;;;;;;;2.00;1.35;;;21.30;50.40;;;;;;5124015;27;20053;-68
2020/12/14 03:58:26;;;;;;;2.13;1.40;;;21.30;50.40;;;;;;5116138;27;20114;-67
2020/12/14 04:00:52;;;;;;;3.00;1.65;;;21.30;50.40;;;;;;5102176;27;20088;-68
2020/12/14 04:03:17;;;;;;;2.22;1.35;;;21.30;50.40;;;;;;5107318;27;20547;-68
2020/12/14 04:05:43;;;;;;;2.25;1.30;;;21.30;50.40;;;;;;5117964;27;20018;-68
2020/12/14 04:08:09;;;;;;;2.50;1.40;;;21.30;50.50;;;;;;5126078;27;20138;-68
2020/12/14 04:10:35;;;;;;;2.50;1.42;;;21.30;50.40;;;;;;5105883;28;20066;-68
2020/12/14 04:13:01;;;;;;;2.85;1.52;;;21.30;50.40;;;;;;5114309;28;20023;-68
2020/12/14 04:15:27;;;;;;;2.38;1.38;;;21.30;50.50;;;;;;5102972;27;20033;-68
2020/12/14 04:17:52;;;;;;;2.13;1.30;;;21.30;50.40;;;;;;5106087;27;20031;-68
2020/12/14 04:20:18;;;;;;;1.98;1.30;;;21.20;50.40;;;;;;5122597;28;20532;-68
2020/12/14 04:22:43;;;;;;;2.20;1.40;;;21.20;50.40;;;;;;5093764;28;20027;-68
2020/12/14 04:25:09;;;;;;;2.47;1.38;;;21.30;50.50;;;;;;5107449;27;20107;-68
2020/12/14 04:27:35;;;;;;;2.33;1.13;;;21.30;50.50;;;;;;5124960;27;20149;-68
2020/12/14 04:30:00;;;;;;;1.77;1.30;;;21.20;50.40;;;;;;5145808;27;20030;-68
2020/12/14 04:32:26;;;;;;;2.35;1.33;;;21.20;50.40;;;;;;5115033;28;20035;-68
2020/12/14 04:34:51;;;;;;;2.08;1.17;;;21.20;50.40;;;;;;5088902;28;20028;-68
2020/12/14 04:37:17;;;;;;;2.22;1.30;;;21.20;50.40;;;;;;5120431;27;20385;-67
2020/12/14 04:39:42;;;;;;;2.00;1.27;;;21.20;50.40;;;;;;5128964;27;20022;-68
2020/12/14 04:42:08;;;;;;;1.98;1.20;;;21.20;50.40;;;;;;5104517;27;20042;-67
2020/12/14 04:44:36;;;;;;;2.30;1.38;;;21.20;50.40;;;;;;5118658;27;20117;-68
2020/12/14 04:47:02;;;;;;;1.85;1.20;;;21.20;50.40;;;;;;5122387;27;20026;-68
2020/12/14 04:49:30;;;;;;;2.47;1.35;;;21.20;50.50;;;;;;5132841;27;20115;-68
2020/12/14 04:51:57;;;;;;;1.70;1.20;;;21.10;50.40;;;;;;5109983;27;20130;-68
2020/12/14 04:54:24;;;;;;;1.45;1.00;;;21.10;50.40;;;;;;5129685;27;20038;-68
2020/12/14 04:56:53;;;;;;;1.55;1.10;;;21.10;50.40;;;;;;5112526;27;20114;-68
2020/12/14 04:59:23;;;;;;;1.80;1.05;;;21.10;50.40;;;;;;5119070;27;20088;-68
2020/12/14 05:01:49;;;;;;;1.85;1.10;;;21.10;50.40;;;;;;5113777;27;20031;-67
2020/12/14 05:04:14;;;;;;;1.70;1.25;;;21.20;50.50;;;;;;5112404;27;20034;-68
2020/12/14 05:06:51;;;;;;;2.20;1.30;;;21.10;50.40;;;;;;5127999;27;20051;-69
2020/12/14 05:09:20;;;;;;;2.20;1.30;;;21.20;50.40;;;;;;5114613;27;20048;-69
2020/12/14 05:11:46;;;;;;;2.30;1.23;;;21.10;50.30;;;;;;5125841;27;20038;-68
2020/12/14 05:14:17;;;;;;;1.42;1.02;;;21.10;50.30;;;;;;5103375;27;20027;-68
2020/12/14 05:16:43;;;;;;;2.10;1.30;;;21.10;50.40;;;;;;5114885;27;20189;-68
2020/12/14 05:19:25;;;;;;;2.17;1.35;;;21.10;50.40;;;;;;5120515;27;20032;-68
2020/12/14 05:21:53;;;;;;;3.65;1.25;;;21.10;50.40;;;;;;5125233;27;20347;-68
2020/12/14 05:24:27;;;;;;;1.73;1.00;;;21.10;50.40;;;;;;5119768;27;20027;-67
2020/12/14 05:26:53;;;;;;;1.63;1.20;;;21.10;51.00;;;;;;5123784;27;20293;-66
2020/12/14 05:29:22;;;;;;;1.70;1.20;;;21.10;50.50;;;;;;5125527;27;20126;-67
2020/12/14 05:32:01;;;;;;;1.87;1.13;;;21.10;50.50;;;;;;5111249;27;20394;-66
2020/12/14 05:34:32;;;;;;;1.90;1.10;;;21.10;50.50;;;;;;5118618;27;20376;-68
2020/12/14 05:37:00;;;;;;;2.22;1.20;;;21.10;50.50;;;;;;5097423;27;20065;-68
2020/12/14 05:39:29;;;;;;;1.67;1.02;;;21.10;50.50;;;;;;5137764;27;20054;-67
2020/12/14 05:42:07;;;;;;;1.88;1.00;;;21.10;50.50;;;;;;5123601;27;20474;-67
2020/12/14 05:44:32;;;;;;;2.28;1.15;;;21.00;50.50;;;;;;5128429;27;20024;-67
2020/12/14 05:46:58;;;;;;;2.08;1.17;;;21.10;50.50;;;;;;5113068;27;20519;-67
2020/12/14 05:49:25;;;;;;;2.00;1.02;;;21.10;50.50;;;;;;5107965;27;20023;-68
2020/12/14 05:51:58;;;;;;;1.58;1.13;;;21.00;50.50;;;;;;5096927;27;20020;-67
2020/12/14 05:54:33;;;;;;;1.52;1.00;;;21.10;50.60;;;;;;5106270;27;20505;-68
2020/12/14 05:57:02;;;;;;;2.13;1.27;;;21.00;50.60;;;;;;5131508;27;20039;-68
2020/12/14 05:59:32;;;;;;;1.90;1.20;;;21.00;50.60;;;;;;5094894;27;20507;-68
2020/12/14 06:01:58;;;;;;;1.40;1.00;;;21.00;50.60;;;;;;5118262;27;20024;-68
2020/12/14 06:04:24;;;;;;;1.80;1.20;;;21.00;50.60;;;;;;5123342;27;20450;-68
2020/12/14 06:06:57;;;;;;;1.75;1.20;;;21.00;50.60;;;;;;5131852;27;20096;-68
2020/12/14 06:09:26;;;;;;;2.53;1.10;;;21.10;50.70;;;;;;5118725;27;20061;-68
2020/12/14 06:11:53;;;;;;;1.38;1.00;;;21.00;50.70;;;;;;5108500;27;20035;-68
2020/12/14 06:14:20;;;;;;;1.88;1.10;;;21.00;51.20;;;;;;5122243;27;20232;-67
2020/12/14 06:16:46;;;;;;;2.53;1.00;;;21.10;50.70;;;;;;5113030;27;20145;-67
2020/12/14 06:19:15;;;;;;;1.90;1.20;;;21.00;50.70;;;;;;5114170;27;20019;-67
2020/12/14 06:21:58;;;;;;;2.28;1.30;;;21.00;50.70;;;;;;5097014;27;20152;-67
2020/12/14 06:24:26;;;;;;;2.20;1.30;;;21.10;51.80;;;;;;5121991;27;20043;-67
2020/12/14 06:26:53;;;;;;;2.28;1.40;;;21.20;52.10;;;;;;5103213;27;20481;-67
2020/12/14 06:29:33;;;;;;;2.22;1.40;;;21.40;51.90;;;;;;5134755;27;20042;-67
2020/12/14 06:32:00;;;;;;;2.60;1.30;;;21.70;51.70;;;;;;5112704;27;20061;-67
2020/12/14 06:34:32;;;;;;;2.35;1.40;;;21.90;51.50;;;;;;5141389;27;20521;-67
2020/12/14 06:37:03;;;;;;;2.65;1.40;;;22.10;51.30;;;;;;5127012;27;20023;-66
2020/12/14 06:39:41;;;;;;;2.10;1.10;;;22.30;51.10;;;;;;5129078;27;20137;-67
2020/12/14 06:42:07;;;;;;;2.07;1.00;;;22.30;50.70;;;;;;5122133;27;20423;-67
2020/12/14 06:44:33;;;;;;;0.85;0.82;;;22.30;50.80;;;;;;5130104;27;20045;-68
2020/12/14 06:47:11;;;;;;;1.50;0.88;;;22.20;51.00;;;;;;5128501;27;20047;-68
2020/12/14 06:49:37;;;;;;;1.30;1.00;;;22.20;51.20;;;;;;5127305;27;20143;-68
2020/12/14 06:52:02;;;;;;;2.38;1.20;;;22.20;51.90;;;;;;5128480;27;20081;-67
2020/12/14 06:54:45;;;;;;;1.45;0.80;;;22.20;51.60;;;;;;5130619;27;20046;-67
2020/12/14 06:57:17;;;;;;;1.45;0.90;;;22.30;51.50;;;;;;5133553;27;20120;-67
2020/12/14 06:59:50;;;;;;;2.83;1.02;;;22.30;51.50;;;;;;5114397;27;20331;-68
2020/12/14 07:02:16;;;;;;;1.58;0.90;;;22.30;51.50;;;;;;5115314;27;20051;-68
2020/12/14 07:04:43;;;;;;;2.38;1.10;;;22.30;51.50;;;;;;5125218;27;20051;-67
2020/12/14 07:07:09;;;;;;;1.63;0.88;;;22.40;51.60;;;;;;5118904;27;20031;-68
2020/12/14 07:09:37;;;;;;;1.20;0.80;;;22.50;51.70;;;;;;5128874;27;20050;-68
2020/12/14 07:12:11;;;;;;;0.75;0.70;;;22.60;51.70;;;;;;5115665;27;20038;-67
2020/12/14 07:14:57;;;;;;;1.13;0.90;;;22.60;51.60;;;;;;5123245;27;20111;-67
2020/12/14 07:17:24;;;;;;;1.50;0.90;;;22.70;51.70;;;;;;5129349;27;20074;-67
2020/12/14 07:19:52;;;;;;;1.35;0.68;;;22.70;52.20;;;;;;5127597;27;20062;-67
2020/12/14 07:22:20;;;;;;;1.85;0.90;;;22.70;51.70;;;;;;5113765;27;20032;-67
2020/12/14 07:25:06;;;;;;;1.30;0.95;;;22.70;51.70;;;;;;5106629;27;20073;-67
2020/12/14 07:27:33;;;;;;;1.17;0.80;;;22.90;51.70;;;;;;5113212;27;20031;-67
2020/12/14 07:30:10;;;;;;;1.17;0.80;;;22.90;51.60;;;;;;5119370;27;20470;-67
2020/12/14 07:32:36;;;;;;;1.15;0.80;;;23.00;51.70;;;;;;5114020;27;20035;-66
2020/12/14 07:35:07;;;;;;;1.17;0.70;;;22.90;51.60;;;;;;5108851;27;20096;-67
2020/12/14 07:37:34;;;;;;;1.95;0.90;;;23.00;51.60;;;;;;5127628;27;20101;-67
2020/12/14 07:40:00;;;;;;;1.30;0.90;;;23.00;51.60;;;;;;5116862;27;20070;-67
2020/12/14 07:42:29;;;;;;;2.22;0.80;;;23.10;51.90;;;;;;5109640;27;20352;-67
2020/12/14 07:45:17;;;;;;;1.05;0.80;;;23.20;51.60;;;;;;5127109;27;20046;-67
2020/12/14 07:47:44;;;;;;;0.90;0.80;;;23.30;51.70;;;;;;5113460;27;20209;-67
2020/12/14 07:50:13;;;;;;;1.58;0.80;;;23.30;51.50;;;;;;5117287;27;20403;-67
2020/12/14 07:52:40;;;;;;;0.85;0.70;;;23.30;51.60;;;;;;5119687;27;20031;-68
2020/12/14 07:55:11;;;;;;;0.98;0.80;;;23.30;51.40;;;;;;5107973;28;20507;-67
2020/12/14 07:57:39;;;;;;;2.47;0.90;;;23.30;51.60;;;;;;5126582;27;20115;-68
2020/12/14 08:00:09;;;;;;;0.88;0.73;;;23.40;51.80;;;;;;5125167;27;20053;-68
2020/12/14 08:02:37;;;;;;;0.85;0.70;;;23.50;51.60;;;;;;5088245;28;20485;-67
2020/12/14 08:05:23;;;;;;;1.17;0.80;;;23.60;51.60;;;;;;5109581;27;20087;-67
2020/12/14 08:07:50;;;;;;;1.25;0.98;;;23.60;51.70;;;;;;5116360;27;20074;-67
2020/12/14 08:10:17;;;;;;;1.70;1.15;;;23.60;49.10;;;;;;5125138;27;20041;-67
2020/12/14 08:12:44;;;;;;;1.85;1.10;;;23.60;48.30;;;;;;5123855;27;20035;-66
2020/12/14 08:15:14;;;;;;;2.35;1.17;;;23.50;47.80;;;;;;5124116;28;20105;-67
2020/12/14 08:17:41;;;;;;;1.55;0.98;;;23.50;47.90;;;;;;5118237;27;20030;-67
2020/12/14 08:20:23;;;;;;;2.45;0.82;;;23.50;47.80;;;;;;5128814;27;20015;-67
2020/12/14 08:22:48;;;;;;;2.60;1.10;;;23.50;47.80;;;;;;5112509;27;20042;-67
2020/12/14 08:25:39;;;;;;;2.45;1.20;;;23.50;47.70;;;;;;5120834;27;20027;-67
2020/12/14 08:28:04;;;;;;;1.60;1.20;;;23.50;47.80;;;;;;5118935;28;20047;-67
2020/12/14 08:30:33;;;;;;;1.70;1.00;;;23.40;47.70;;;;;;5111932;27;20446;-67
2020/12/14 08:33:25;;;;;;;1.38;0.75;;;23.40;47.90;;;;;;5121033;27;20046;-67
2020/12/14 08:35:55;;;;;;;1.45;0.90;;;23.40;47.70;;;;;;5116616;27;20093;-67
2020/12/14 08:38:30;;;;;;;1.48;1.08;;;23.40;47.80;;;;;;5103300;28;20088;-67
2020/12/14 08:41:04;;;;;;;2.60;1.15;;;23.40;48.00;;;;;;5119104;27;20449;-67
2020/12/14 08:43:33;;;;;;;1.77;0.90;;;23.40;47.80;;;;;;5106456;27;20034;-67
2020/12/14 08:46:15;;;;;;;1.40;0.90;;;23.40;47.90;;;;;;5104827;28;20028;-67
2020/12/14 08:48:49;;;;;;;1.40;0.90;;;23.40;48.00;;;;;;5112935;28;20027;-67
2020/12/14 08:51:31;;;;;;;1.23;0.80;;;23.40;48.00;;;;;;5112373;28;20027;-67
2020/12/14 08:54:11;;;;;;;2.28;1.00;;;23.30;48.00;;;;;;5110360;28;20023;-67
2020/12/14 08:56:37;;;;;;;1.40;0.90;;;23.30;47.90;;;;;;5123629;28;20031;-66
2020/12/14 08:59:03;;;;;;;1.58;0.90;;;23.30;48.00;;;;;;5132957;27;20056;-67
2020/12/14 09:01:31;;;;;;;1.25;0.90;;;23.30;48.80;;;;;;5125121;27;20114;-67
2020/12/14 09:03:59;;;;;;;3.80;0.90;;;23.30;48.40;;;;;;5136934;27;20054;-68
2020/12/14 09:06:36;;;;;;;1.20;0.80;;;23.40;48.60;;;;;;5121067;28;20055;-67
2020/12/14 09:09:12;;;;;;;2.38;0.90;;;23.40;48.60;;;;;;5125460;27;20730;-68
2020/12/14 09:11:46;;;;;;;1.35;0.82;;;23.40;48.70;;;;;;5095599;28;20366;-67
2020/12/14 09:14:31;;;;;;;1.25;0.90;;;23.40;48.80;;;;;;5128241;27;20035;-67
2020/12/14 09:17:02;;;;;;;1.20;0.80;;;23.50;49.00;;;;;;5130846;27;20280;-66
2020/12/14 09:19:30;;;;;;;1.42;0.80;;;23.40;49.00;;;;;;5114892;27;20047;-66
2020/12/14 09:21:56;;;;;;;1.23;0.80;;;23.50;49.00;;;;;;5110735;27;20339;-67
2020/12/14 09:24:30;;;;;;;1.58;0.90;;;23.50;49.20;;;;;;5121113;27;20027;-67
2020/12/14 09:27:02;;;;;;;1.15;0.80;;;23.50;49.20;;;;;;5116467;27;20031;-67
2020/12/14 09:29:27;;;;;;;0.88;0.60;;;23.50;49.30;;;;;;5121630;27;20035;-67
2020/12/14 09:31:56;;;;;;;0.93;0.70;;;23.60;49.40;;;;;;5119433;27;20031;-67
2020/12/14 09:34:22;;;;;;;1.02;0.73;;;23.60;49.50;;;;;;5143095;27;20155;-67
2020/12/14 09:36:56;;;;;;;1.48;1.00;;;23.60;49.40;;;;;;5095387;27;20031;-67
2020/12/14 09:39:23;;;;;;;1.35;0.85;;;23.60;49.50;;;;;;5122912;27;20043;-67
2020/12/14 09:41:49;;;;;;;1.27;0.70;;;23.60;49.60;;;;;;5107635;27;22175;-67
2020/12/14 09:44:15;;;;;;;2.03;0.80;;;23.60;49.60;;;;;;5132359;27;20046;-67
2020/12/14 09:46:41;;;;;;;1.30;0.80;;;23.70;49.70;;;;;;5114712;27;20568;-67
2020/12/14 09:49:07;;;;;;;1.25;0.80;;;23.70;49.70;;;;;;5131836;27;20142;-66
2020/12/14 09:51:35;;;;;;;1.15;0.70;;;23.70;49.60;;;;;;5126269;27;20142;-67
2020/12/14 09:54:04;;;;;;;0.90;0.70;;;23.70;49.80;;;;;;5132084;27;20018;-67
2020/12/14 09:56:31;;;;;;;1.02;0.70;;;23.70;49.70;;;;;;5131755;27;20341;-67
2020/12/14 09:58:56;;;;;;;0.93;0.73;;;23.70;49.80;;;;;;5148287;27;20027;-67
2020/12/14 10:01:24;;;;;;;1.55;0.77;;;23.70;49.90;;;;;;5129602;27;20568;-68
2020/12/14 10:03:51;;;;;;;1.85;0.80;;;23.80;49.90;;;;;;5109881;27;20347;-67
2020/12/14 10:06:16;;;;;;;2.20;1.00;;;23.80;50.20;;;;;;5108177;27;20107;-67
2020/12/14 10:08:42;;;;;;;1.60;1.00;;;23.80;48.20;;;;;;5124624;27;20039;-67
2020/12/14 10:11:09;;;;;;;1.50;0.80;;;23.70;47.50;;;;;;5126189;27;20027;-68
2020/12/14 10:13:36;;;;;;;1.13;0.80;;;23.70;47.70;;;;;;5117885;27;20172;-67
2020/12/14 10:16:02;;;;;;;1.20;0.80;;;23.70;48.00;;;;;;5129595;27;20061;-67
2020/12/14 10:18:28;;;;;;;0.88;0.75;;;23.70;48.20;;;;;;5128495;27;20108;-67
2020/12/14 10:20:53;;;;;;;1.88;0.85;;;23.70;48.50;;;;;;5139808;27;20488;-67
2020/12/14 10:23:19;;;;;;;1.38;0.80;;;23.70;48.60;;;;;;5105445;27;20484;-67
2020/12/14 10:25:45;;;;;;;1.75;0.90;;;23.70;48.90;;;;;;5132858;27;20015;-67
2020/12/14 10:28:11;;;;;;;0.88;0.70;;;23.80;49.60;;;;;;5107222;27;20154;-68
2020/12/14 10:30:37;;;;;;;0.88;0.63;;;23.80;49.10;;;;;;5126357;27;20530;-68
2020/12/14 10:33:04;;;;;;;1.08;0.88;;;23.80;49.20;;;;;;5103192;27;20038;-68
2020/12/14 10:35:30;;;;;;;1.10;0.80;;;23.80;49.30;;;;;;5127357;27;20380;-67
2020/12/14 10:37:56;;;;;;;1.60;0.85;;;23.80;49.40;;;;;;5136158;27;20532;-68
2020/12/14 10:40:26;;;;;;;2.25;0.75;;;23.90;49.50;;;;;;5127196;27;20047;-67
2020/12/14 10:42:53;;;;;;;1.20;0.80;;;23.90;49.70;;;;;;5127017;27;20338;-67
2020/12/14 10:45:18;;;;;;;1.02;0.80;;;23.90;50.30;;;;;;5141929;27;20474;-68
2020/12/14 10:47:44;;;;;;;1.15;0.70;;;23.90;49.80;;;;;;5120500;27;20095;-68
2020/12/14 10:50:10;;;;;;;1.30;0.80;;;23.90;49.90;;;;;;5130990;27;20042;-68
2020/12/14 10:52:36;;;;;;;1.00;0.70;;;23.90;50.00;;;;;;5100639;28;20080;-68
2020/12/14 10:55:03;;;;;;;1.40;0.90;;;23.90;50.10;;;;;;5120956;27;20412;-67
2020/12/14 10:57:29;;;;;;;1.00;0.80;;;23.90;50.50;;;;;;5127452;27;20430;-67
2020/12/14 11:00:06;;;;;;;0.52;0.52;;;24.00;50.80;;;;;;5131161;27;20019;-67
2020/12/14 11:02:35;;;;;;;1.90;0.70;;;24.10;50.80;;;;;;5121844;27;20346;-68
2020/12/14 11:05:04;;;;;;;1.20;0.70;;;24.10;50.90;;;;;;5122632;27;20162;-68
2020/12/14 11:07:30;;;;;;;1.25;0.82;;;24.10;51.00;;;;;;5137289;27;20031;-68
2020/12/14 11:09:56;;;;;;;0.80;0.70;;;24.10;50.80;;;;;;5135305;27;20027;-67
2020/12/14 11:12:22;;;;;;;1.02;0.80;;;24.10;50.70;;;;;;5119919;27;20015;-67
2020/12/14 11:14:47;;;;;;;1.13;0.70;;;24.20;50.60;;;;;;5109346;27;20027;-67
2020/12/14 11:17:15;;;;;;;1.05;0.68;;;24.10;50.80;;;;;;5111780;27;20027;-67
2020/12/14 11:19:41;;;;;;;0.85;0.80;;;24.20;50.80;;;;;;5123342;27;20121;-67
2020/12/14 11:22:06;;;;;;;0.88;0.70;;;24.20;50.80;;;;;;5134517;27;20019;-67
2020/12/14 11:24:32;;;;;;;0.70;0.70;;;24.20;50.80;;;;;;5123155;27;20079;-68
2020/12/14 11:26:57;;;;;;;1.00;0.60;;;24.20;50.90;;;;;;5117471;27;20484;-68
2020/12/14 11:29:25;;;;;;;0.95;0.80;;;24.30;50.90;;;;;;5122896;27;20138;-68
2020/12/14 11:31:51;;;;;;;1.10;0.80;;;24.30;51.00;;;;;;5123526;27;20030;-68
2020/12/14 11:34:17;;;;;;;0.93;0.75;;;24.30;51.00;;;;;;5117569;27;20110;-68
2020/12/14 11:36:43;;;;;;;1.63;0.60;;;24.30;51.10;;;;;;5110025;27;20126;-68
2020/12/14 11:39:09;;;;;;;1.05;0.73;;;24.30;51.00;;;;;;5120736;27;20030;-68
2020/12/14 11:41:34;;;;;;;1.60;0.60;;;24.30;50.90;;;;;;5121628;27;20172;-68
2020/12/14 11:44:00;;;;;;;1.35;0.80;;;24.30;50.90;;;;;;5122044;27;20027;-68
2020/12/14 11:46:26;;;;;;;0.52;0.50;;;24.30;51.10;;;;;;5120193;27;20055;-69
2020/12/14 11:48:52;;;;;;;1.02;0.70;;;24.30;50.90;;;;;;5098223;27;20039;-69
2020/12/14 11:51:18;;;;;;;0.82;0.70;;;24.30;50.90;;;;;;5119707;27;20421;-68
2020/12/14 11:53:44;;;;;;;0.82;0.60;;;24.30;51.00;;;;;;5111185;27;20027;-67
2020/12/14 11:56:10;;;;;;;0.70;0.57;;;24.40;51.10;;;;;;5129043;27;20039;-68
2020/12/14 11:58:36;;;;;;;1.30;0.63;;;24.40;51.30;;;;;;5123023;27;20031;-67
2020/12/14 12:01:01;;;;;;;1.63;0.90;;;24.40;50.30;;;;;;5121152;27;20011;-68
2020/12/14 12:03:27;;;;;;;1.33;0.93;;;24.30;47.50;;;;;;5115191;27;20031;-68
2020/12/14 12:05:53;;;;;;;1.23;0.90;;;24.30;46.50;;;;;;5116036;27;20089;-69
2020/12/14 12:08:19;;;;;;;1.48;1.00;;;24.30;46.40;;;;;;5117653;27;20019;-69
2020/12/14 12:10:44;;;;;;;1.17;0.80;;;24.30;46.50;;;;;;5105217;27;20059;-67
2020/12/14 12:13:10;;;;;;;1.00;0.88;;;24.20;47.20;;;;;;5117606;27;20449;-67
2020/12/14 12:15:36;;;;;;;1.15;0.80;;;24.30;48.00;;;;;;5114019;27;20112;-68
2020/12/14 12:18:02;;;;;;;1.42;0.80;;;24.30;48.10;;;;;;5107869;27;20027;-68
2020/12/14 12:20:27;;;;;;;1.10;0.70;;;24.30;48.20;;;;;;5117074;27;20144;-69
2020/12/14 12:22:57;;;;;;;1.30;0.93;;;24.30;48.70;;;;;;5120642;28;20142;-68
2020/12/14 12:25:24;;;;;;;0.93;0.80;;;24.30;49.10;;;;;;5123631;28;20031;-69
2020/12/14 12:27:50;;;;;;;1.20;0.80;;;24.30;49.20;;;;;;5125015;27;20042;-69
2020/12/14 12:30:16;;;;;;;2.33;0.90;;;24.30;49.20;;;;;;5114496;27;20438;-69
2020/12/14 12:32:42;;;;;;;1.63;0.80;;;24.30;49.30;;;;;;5124419;27;20113;-69
2020/12/14 12:35:07;;;;;;;1.40;0.90;;;24.30;49.70;;;;;;5096645;28;20100;-69
2020/12/14 12:37:33;;;;;;;1.23;0.90;;;24.40;49.70;;;;;;5119742;27;20544;-69
2020/12/14 12:40:00;;;;;;;1.92;1.05;;;24.40;50.30;;;;;;5115262;28;20165;-69
2020/12/14 12:42:26;;;;;;;3.33;1.70;;;24.40;40.70;;;;;;5122754;27;20027;-68
2020/12/14 12:44:52;;;;;;;5.68;3.17;;;24.20;36.70;;;;;;5118345;27;20027;-68
2020/12/14 12:47:17;;;;;;;14.90;8.13;;;24.00;34.50;;;;;;5104715;28;20076;-70
2020/12/14 12:49:43;;;;;;;16.52;8.30;;;23.70;33.60;;;;;;5105678;28;20039;-70